createdAt,value
2018-04-24T00:00:56.078Z,15.25
2018-04-24T00:03:23.692Z,15.22
2018-04-24T00:05:51.339Z,15.55
2018-04-24T00:08:18.890Z,15.62
2018-04-24T00:10:46.563Z,15.45
2018-04-24T00:13:14.122Z,15.36
2018-04-24T00:15:41.671Z,15.45
2018-04-24T00:18:09.344Z,15.39
2018-04-24T00:20:36.962Z,15.30
2018-04-24T00:23:04.582Z,15.35
2018-04-24T00:25:32.268Z,15.32
2018-04-24T00:27:59.848Z,15.17
2018-04-24T00:30:27.463Z,15.01
2018-04-24T00:32:55.130Z,14.78
2018-04-24T00:35:22.758Z,14.56
2018-04-24T00:37:50.351Z,14.49
2018-04-24T00:40:18.039Z,14.43
2018-04-24T00:42:45.660Z,14.90
2018-04-24T00:45:13.268Z,14.76
2018-04-24T00:47:40.939Z,14.60
2018-04-24T00:50:08.506Z,14.84
2018-04-24T00:52:36.108Z,14.96
2018-04-24T00:55:03.679Z,14.75
2018-04-24T00:57:31.279Z,14.49
2018-04-24T00:59:58.839Z,14.36
2018-04-24T01:02:26.571Z,14.26
2018-04-24T01:04:54.122Z,14.28
2018-04-24T01:07:21.680Z,14.58
2018-04-24T01:09:49.339Z,14.85
2018-04-24T01:12:16.900Z,15.23
2018-04-24T01:14:44.560Z,15.60
2018-04-24T01:17:12.175Z,15.51
2018-04-24T01:19:39.775Z,15.30
2018-04-24T01:22:07.374Z,14.94
2018-04-24T01:24:34.934Z,14.51
2018-04-24T01:27:02.491Z,14.14
2018-04-24T01:29:30.055Z,13.91
2018-04-24T01:31:57.674Z,13.91
2018-04-24T01:34:25.234Z,14.20
2018-04-24T01:36:52.856Z,14.18
2018-04-24T01:39:20.459Z,14.36
2018-04-24T01:41:48.076Z,14.50
2018-04-24T01:44:15.746Z,14.58
2018-04-24T01:46:43.308Z,14.41
2018-04-24T01:49:11.804Z,14.28
2018-04-24T01:51:39.399Z,14.20
2018-04-24T01:54:07.033Z,14.08
2018-04-24T01:56:34.603Z,13.88
2018-04-24T01:59:04.836Z,13.80
2018-04-24T02:01:32.467Z,13.56
2018-04-24T02:04:00.126Z,13.37
2018-04-24T02:06:27.683Z,13.20
2018-04-24T02:08:55.274Z,13.08
2018-04-24T02:11:22.920Z,13.02
2018-04-24T02:13:50.556Z,12.94
2018-04-24T02:16:18.187Z,12.75
2018-04-24T02:18:45.848Z,12.63
2018-04-24T02:21:13.481Z,12.60
2018-04-24T02:23:41.672Z,12.55
2018-04-24T02:26:09.315Z,12.46
2018-04-24T02:28:36.912Z,12.40
2018-04-24T02:31:04.562Z,12.40
2018-04-24T02:33:32.196Z,12.32
2018-04-24T02:35:59.829Z,12.18
2018-04-24T02:38:28.601Z,12.10
2018-04-24T02:40:56.732Z,12.09
2018-04-24T02:43:24.514Z,11.98
2018-04-24T02:45:52.155Z,11.87
2018-04-24T02:48:19.775Z,11.84
2018-04-24T02:50:47.445Z,11.81
2018-04-24T02:53:15.065Z,11.53
2018-04-24T02:55:42.748Z,11.61
2018-04-24T02:58:10.443Z,11.53
2018-04-24T03:00:38.055Z,11.45
2018-04-24T03:03:05.699Z,11.51
2018-04-24T03:05:36.713Z,11.45
2018-04-24T03:08:10.168Z,11.14
2018-04-24T03:10:40.733Z,11.01
2018-04-24T03:13:10.387Z,11.00
2018-04-24T03:15:40.057Z,10.77
2018-04-24T03:18:08.823Z,10.66
2018-04-24T03:20:37.549Z,10.58
2018-04-24T03:23:05.333Z,10.58
2018-04-24T03:25:33.422Z,10.96
2018-04-24T03:28:02.213Z,10.99
2018-04-24T03:30:30.405Z,11.00
2018-04-24T03:32:59.008Z,11.03
2018-04-24T03:35:28.707Z,11.11
2018-04-24T03:37:57.486Z,11.14
2018-04-24T03:40:26.305Z,11.31
2018-04-24T03:42:54.670Z,11.66
2018-04-24T03:45:24.363Z,11.93
2018-04-24T03:47:51.992Z,12.06
2018-04-24T03:50:19.635Z,12.14
2018-04-24T03:52:50.181Z,12.39
2018-04-24T03:55:19.420Z,12.37
2018-04-24T03:57:50.389Z,12.16
2018-04-24T04:00:22.857Z,12.21
2018-04-24T04:02:53.573Z,12.28
2018-04-24T04:05:25.596Z,12.31
2018-04-24T04:07:57.415Z,12.34
2018-04-24T04:10:25.238Z,12.42
2018-04-24T04:12:53.677Z,12.49
2018-04-24T04:15:26.451Z,12.54
2018-04-24T04:18:07.786Z,12.49
2018-04-24T04:20:51.701Z,12.47
2018-04-24T04:23:32.230Z,12.52
2018-04-24T04:26:03.307Z,12.67
2018-04-24T04:28:30.973Z,13.01
2018-04-24T04:30:58.616Z,13.29
2018-04-24T04:33:26.343Z,13.59
2018-04-24T04:35:53.926Z,13.89
2018-04-24T04:38:21.556Z,13.84
2018-04-24T04:40:49.244Z,14.13
2018-04-24T04:43:18.296Z,14.40
2018-04-24T04:45:45.957Z,14.61
2018-04-24T04:48:13.610Z,14.63
2018-04-24T04:50:41.201Z,14.68
2018-04-24T04:53:08.862Z,14.79
2018-04-24T04:55:36.415Z,14.92
2018-04-24T04:58:04.063Z,15.08
2018-04-24T05:00:31.704Z,15.11
2018-04-24T05:02:59.303Z,15.17
2018-04-24T05:05:26.859Z,15.30
2018-04-24T05:07:54.532Z,15.45
2018-04-24T05:10:22.178Z,15.42
2018-04-24T05:12:49.894Z,15.64
2018-04-24T05:15:17.488Z,15.83
2018-04-24T05:17:45.087Z,15.95
2018-04-24T05:20:12.696Z,15.96
2018-04-24T05:22:41.268Z,15.95
2018-04-24T05:25:08.908Z,16.10
2018-04-24T05:27:36.901Z,16.39
2018-04-24T05:30:04.458Z,16.51
2018-04-24T05:32:32.083Z,16.52
2018-04-24T05:34:59.679Z,16.76
2018-04-24T05:37:27.295Z,16.94
2018-04-24T05:39:54.957Z,17.14
2018-04-24T05:42:23.243Z,17.35
2018-04-24T05:44:50.899Z,17.59
2018-04-24T05:47:18.451Z,17.78
2018-04-24T05:49:46.109Z,18.14
2018-04-24T05:52:13.779Z,18.37
2018-04-24T05:54:41.360Z,18.29
2018-04-24T05:57:08.940Z,18.63
2018-04-24T05:59:36.623Z,18.75
2018-04-24T06:02:04.236Z,19.10
2018-04-24T06:04:31.803Z,19.35
2018-04-24T06:06:59.420Z,19.63
2018-04-24T06:09:27.121Z,19.67
2018-04-24T06:11:54.839Z,19.90
2018-04-24T06:14:22.447Z,20.22
2018-04-24T06:16:50.060Z,20.09
2018-04-24T06:19:17.675Z,20.26
2018-04-24T06:21:45.300Z,20.71
2018-04-24T06:24:12.913Z,21.05
2018-04-24T06:26:40.526Z,21.31
2018-04-24T06:29:08.168Z,21.59
2018-04-24T06:31:35.786Z,21.67
2018-04-24T06:34:03.335Z,22.12
2018-04-24T06:36:30.987Z,22.45
2018-04-24T06:38:58.542Z,22.43
2018-04-24T06:41:26.107Z,22.83
2018-04-24T06:43:53.784Z,23.06
2018-04-24T06:55:40.712Z,23.67
2018-04-24T06:58:08.327Z,23.93
2018-04-24T07:00:37.654Z,24.04
2018-04-24T07:03:05.170Z,23.61
2018-04-24T07:05:32.778Z,24.00
2018-04-24T07:08:00.426Z,24.02
2018-04-24T07:10:27.976Z,24.49
2018-04-24T07:12:55.609Z,24.81
2018-04-24T07:15:23.272Z,25.60
2018-04-24T07:17:50.894Z,26.02
2018-04-24T07:20:18.452Z,27.81
2018-04-24T07:22:45.995Z,29.35
2018-04-24T07:25:14.407Z,30.48
2018-04-24T07:27:42.020Z,29.76
2018-04-24T07:30:09.667Z,29.04
2018-04-24T07:32:38.211Z,31.98
2018-04-24T07:35:05.790Z,31.99
2018-04-24T07:37:33.343Z,31.79
2018-04-24T07:40:00.956Z,30.97
2018-04-24T07:42:28.617Z,29.76
2018-04-24T07:44:56.329Z,31.22
2018-04-24T07:47:23.887Z,32.36
2018-04-24T07:49:51.463Z,34.60
2018-04-24T07:52:19.079Z,35.14
2018-04-24T07:54:46.787Z,35.75
2018-04-24T07:57:14.356Z,34.56
2018-04-24T07:59:42.002Z,36.95
2018-04-24T08:02:09.618Z,36.70
2018-04-24T08:04:37.173Z,36.69
2018-04-24T08:07:04.774Z,36.43
2018-04-24T08:09:32.351Z,36.44
2018-04-24T08:12:00.020Z,36.19
2018-04-24T08:14:27.652Z,35.96
2018-04-24T08:16:55.284Z,35.08
2018-04-24T08:19:22.967Z,35.72
2018-04-24T08:21:50.592Z,35.69
2018-04-24T08:24:18.260Z,33.88
2018-04-24T08:26:45.987Z,36.67
2018-04-24T08:29:13.611Z,37.82
2018-04-24T08:31:41.225Z,38.52
2018-04-24T08:34:09.182Z,37.95
2018-04-24T08:36:36.758Z,38.66
2018-04-24T08:39:04.517Z,38.80
2018-04-24T08:41:32.003Z,39.39
2018-04-24T08:43:59.597Z,39.36
2018-04-24T08:46:27.160Z,38.77
2018-04-24T08:48:54.770Z,40.18
2018-04-24T08:51:22.327Z,38.79
2018-04-24T08:53:51.150Z,38.68
2018-04-24T08:56:19.715Z,37.63
2018-04-24T08:58:48.078Z,39.02
2018-04-24T09:01:15.830Z,38.99
2018-04-24T09:03:43.376Z,38.88
2018-04-24T09:06:10.928Z,37.94
2018-04-24T09:08:38.623Z,38.04
2018-04-24T09:11:06.136Z,36.53
2018-04-24T09:13:33.774Z,37.50
2018-04-24T09:16:01.332Z,39.21
2018-04-24T09:18:28.955Z,39.55
2018-04-24T09:20:56.569Z,39.73
2018-04-24T09:23:24.111Z,41.69
2018-04-24T09:25:51.706Z,40.33
2018-04-24T09:28:19.367Z,39.95
2018-04-24T09:30:47.739Z,40.75
2018-04-24T09:33:15.356Z,41.02
2018-04-24T09:35:42.965Z,41.80
2018-04-24T09:38:10.515Z,42.34
2018-04-24T09:40:38.135Z,42.16
2018-04-24T09:43:05.775Z,42.06
2018-04-24T09:45:34.294Z,42.36
2018-04-24T09:48:02.035Z,41.05
2018-04-24T09:50:29.646Z,42.05
2018-04-24T09:52:57.206Z,42.07
2018-04-24T09:55:24.837Z,44.07
2018-04-24T09:57:52.537Z,45.25
2018-04-24T10:00:25.749Z,40.71
2018-04-24T10:02:53.463Z,41.53
2018-04-24T10:05:21.033Z,42.29
2018-04-24T10:07:48.707Z,43.50
2018-04-24T10:10:16.316Z,45.34
2018-04-24T10:12:43.880Z,43.59
2018-04-24T10:15:11.509Z,40.60
2018-04-24T10:17:39.123Z,41.74
2018-04-24T10:20:06.794Z,45.14
2018-04-24T10:22:35.317Z,44.51
2018-04-24T10:25:02.931Z,44.98
2018-04-24T10:27:30.612Z,45.80
2018-04-24T10:29:58.169Z,44.17
2018-04-24T10:32:25.777Z,46.41
2018-04-24T10:34:53.351Z,48.65
2018-04-24T10:37:20.975Z,46.37
2018-04-24T10:39:48.535Z,44.96
2018-04-24T10:42:16.148Z,46.77
2018-04-24T10:44:43.738Z,48.12
2018-04-24T10:47:11.492Z,49.25
2018-04-24T10:49:39.160Z,46.94
2018-04-24T10:52:06.722Z,48.26
2018-04-24T10:54:34.334Z,48.31
2018-04-24T10:57:03.743Z,46.14
2018-04-24T10:59:32.266Z,46.83
2018-04-24T11:01:59.886Z,47.59
2018-04-24T11:04:27.595Z,48.37
2018-04-24T11:06:55.423Z,46.60
2018-04-24T11:09:23.044Z,46.47
2018-04-24T11:11:50.713Z,48.38
2018-04-24T11:14:18.352Z,49.50
2018-04-24T11:16:46.064Z,48.03
2018-04-24T11:19:13.621Z,49.43
2018-04-24T11:21:41.232Z,48.87
2018-04-24T11:24:08.846Z,48.42
2018-04-24T11:26:36.403Z,47.92
2018-04-24T11:29:04.011Z,46.38
2018-04-24T11:31:31.656Z,48.51
2018-04-24T11:34:00.088Z,49.07
2018-04-24T11:36:28.675Z,45.37
2018-04-24T11:38:56.232Z,44.25
2018-04-24T11:41:23.836Z,42.73
2018-04-24T11:43:51.493Z,46.16
2018-04-24T11:46:19.015Z,46.43
2018-04-24T11:48:47.588Z,45.59
2018-04-24T11:51:16.207Z,43.15
2018-04-24T11:53:43.819Z,45.84
2018-04-24T11:56:11.371Z,49.00
2018-04-24T11:58:39.035Z,47.63
2018-04-24T12:01:06.666Z,48.20
2018-04-24T12:03:34.280Z,47.63
2018-04-24T12:06:01.899Z,46.87
2018-04-24T12:08:29.498Z,46.89
2018-04-24T12:10:58.060Z,47.00
2018-04-24T12:13:25.611Z,45.27
2018-04-24T12:15:53.202Z,45.82
2018-04-24T12:18:20.859Z,46.01
2018-04-24T12:20:48.438Z,45.30
2018-04-24T12:23:16.864Z,45.20
2018-04-24T12:25:44.453Z,44.68
2018-04-24T12:28:12.069Z,46.41
2018-04-24T12:30:39.697Z,46.24
2018-04-24T12:33:07.304Z,44.95
2018-04-24T12:35:34.870Z,42.26
2018-04-24T12:38:02.478Z,44.66
2018-04-24T12:40:30.038Z,45.28
2018-04-24T12:42:57.636Z,44.22
2018-04-24T12:45:25.187Z,44.00
2018-04-24T12:47:54.788Z,42.24
2018-04-24T12:50:22.403Z,43.69
2018-04-24T12:52:50.064Z,45.19
2018-04-24T12:55:17.734Z,44.34
2018-04-24T12:57:45.357Z,43.30
2018-04-24T13:00:13.044Z,44.05
2018-04-24T13:02:40.661Z,44.95
2018-04-24T13:05:08.278Z,43.80
2018-04-24T13:10:10.023Z,42.51
2018-04-24T13:12:37.644Z,42.26
2018-04-24T13:15:06.950Z,41.78
2018-04-24T13:17:34.567Z,42.57
2018-04-24T13:20:02.157Z,43.98
2018-04-24T13:22:29.714Z,44.27
2018-04-24T13:24:57.306Z,43.78
2018-04-24T13:27:24.926Z,43.61
2018-04-24T13:29:52.470Z,41.86
2018-04-24T13:32:20.067Z,42.92
2018-04-24T13:34:47.619Z,41.35
2018-04-24T13:37:15.309Z,41.94
2018-04-24T13:39:42.862Z,42.54
2018-04-24T13:42:10.494Z,43.14
2018-04-24T13:44:39.951Z,41.31
2018-04-24T13:47:07.494Z,42.82
2018-04-24T13:49:35.058Z,41.40
2018-04-24T13:52:02.694Z,40.31
2018-04-24T13:54:30.306Z,41.70
2018-04-24T13:56:57.850Z,40.94
2018-04-24T13:59:25.498Z,40.99
2018-04-24T14:01:54.050Z,41.41
2018-04-24T14:04:21.594Z,42.27
2018-04-24T14:06:49.195Z,41.59
2018-04-24T14:09:16.893Z,40.85
2018-04-24T14:11:44.434Z,39.69
2018-04-24T14:14:12.971Z,40.18
2018-04-24T14:16:40.582Z,40.07
2018-04-24T14:19:08.129Z,39.83
2018-04-24T14:21:35.832Z,38.68
2018-04-24T14:24:03.423Z,38.69
2018-04-24T14:26:31.014Z,37.58
2018-04-24T14:28:58.666Z,36.73
2018-04-24T14:31:26.327Z,36.13
2018-04-24T14:33:53.882Z,36.14
2018-04-24T14:36:21.474Z,37.23
2018-04-24T14:38:49.906Z,38.04
2018-04-24T14:41:17.499Z,38.82
2018-04-24T14:43:45.046Z,38.44
2018-04-24T14:46:12.731Z,38.81
2018-04-24T14:48:40.275Z,37.41
2018-04-24T14:51:07.882Z,36.51
2018-04-24T14:53:36.486Z,37.65
2018-04-24T14:56:04.030Z,36.02
2018-04-24T14:58:31.678Z,35.43
2018-04-24T15:00:59.253Z,34.84
2018-04-24T15:03:26.799Z,34.99
2018-04-24T15:05:54.394Z,34.66
2018-04-24T15:08:22.051Z,33.71
2018-04-24T15:10:49.595Z,33.89
2018-04-24T15:13:17.159Z,34.33
2018-04-24T15:15:44.806Z,33.60
2018-04-24T15:18:12.415Z,33.48
2018-04-24T15:20:40.091Z,33.55
2018-04-24T15:23:07.694Z,33.79
2018-04-24T15:25:35.237Z,33.77
2018-04-24T15:28:02.964Z,33.32
2018-04-24T15:30:31.469Z,33.36
2018-04-24T15:32:59.018Z,33.26
2018-04-24T15:35:26.605Z,32.46
2018-04-24T15:37:54.211Z,32.81
2018-04-24T15:40:21.823Z,32.96
2018-04-24T15:42:49.378Z,33.16
2018-04-24T15:45:16.919Z,32.58
2018-04-24T15:47:44.525Z,32.64
2018-04-24T15:50:12.113Z,32.26
2018-04-24T15:52:39.697Z,32.10
2018-04-24T15:55:07.304Z,31.75
2018-04-24T15:57:34.955Z,31.23
2018-04-24T16:00:02.571Z,30.78
2018-04-24T16:02:30.234Z,30.35
2018-04-24T16:04:57.774Z,29.87
2018-04-24T16:07:25.358Z,29.26
2018-04-24T16:09:52.910Z,28.58
2018-04-24T16:12:20.494Z,28.67
2018-04-24T16:14:48.096Z,28.84
2018-04-24T16:17:15.650Z,28.22
2018-04-24T16:19:43.241Z,27.72
2018-04-24T16:22:11.726Z,27.52
2018-04-24T16:24:39.322Z,27.08
2018-04-24T16:27:06.931Z,26.88
2018-04-24T16:29:34.512Z,26.69
2018-04-24T16:32:02.582Z,26.47
2018-04-24T16:34:30.209Z,26.30
2018-04-24T16:36:58.054Z,26.12
2018-04-24T16:39:25.678Z,26.04
2018-04-24T16:41:53.311Z,25.90
2018-04-24T16:44:20.919Z,25.79
2018-04-24T16:46:49.293Z,25.60
2018-04-24T16:49:16.855Z,25.34
2018-04-24T16:51:44.527Z,25.16
2018-04-24T16:54:13.108Z,24.96
2018-04-24T16:56:42.791Z,24.82
2018-04-24T16:59:11.126Z,24.80
2018-04-24T17:01:38.754Z,24.62
2018-04-24T17:04:08.101Z,24.48
2018-04-24T17:06:35.710Z,24.24
2018-04-24T17:09:03.332Z,24.07
2018-04-24T17:11:31.057Z,23.91
2018-04-24T17:13:59.524Z,23.75
2018-04-24T17:16:28.014Z,23.67
2018-04-24T17:18:55.618Z,23.51
2018-04-24T17:21:23.166Z,23.41
2018-04-24T17:23:51.607Z,23.22
2018-04-24T17:26:19.167Z,23.07
2018-04-24T17:28:47.102Z,22.91
2018-04-24T17:31:14.772Z,22.78
2018-04-24T17:33:42.912Z,22.80
2018-04-24T17:36:10.931Z,22.62
2018-04-24T17:38:38.966Z,22.87
2018-04-24T17:41:08.111Z,23.21
2018-04-24T17:43:35.793Z,23.21
2018-04-24T17:46:04.026Z,23.30
2018-04-24T17:48:32.058Z,23.45
2018-04-24T17:51:00.359Z,23.61
2018-04-24T17:53:27.970Z,23.52
2018-04-24T17:55:55.550Z,23.44
2018-04-24T17:58:24.030Z,23.25
2018-04-24T18:00:51.638Z,23.17
2018-04-24T18:03:20.177Z,23.28
2018-04-24T18:05:47.788Z,23.26
2018-04-24T18:08:15.336Z,23.32
2018-04-24T18:10:42.978Z,23.51
2018-04-24T18:13:10.522Z,23.65
2018-04-24T18:15:38.073Z,23.77
2018-04-24T18:18:05.714Z,24.05
2018-04-24T18:20:33.314Z,24.17
2018-04-24T18:23:00.867Z,24.10
2018-04-24T18:25:28.523Z,24.10
2018-04-24T18:27:56.126Z,24.16
2018-04-24T18:30:23.730Z,24.23
2018-04-24T18:32:51.660Z,24.26
2018-04-24T18:35:19.202Z,24.22
2018-04-24T18:37:46.851Z,24.12
2018-04-24T18:40:14.603Z,24.07
2018-04-24T18:42:42.191Z,24.18
2018-04-24T18:45:09.849Z,24.14
2018-04-24T18:47:37.433Z,23.87
2018-04-24T18:50:05.849Z,23.54
2018-04-24T18:52:33.487Z,23.07
2018-04-24T18:55:01.058Z,22.58
2018-04-24T18:57:28.622Z,22.16
2018-04-24T18:59:56.243Z,21.62
2018-04-24T19:02:23.785Z,21.46
2018-04-24T19:04:51.332Z,21.39
2018-04-24T19:07:18.957Z,21.42
2018-04-24T19:09:46.507Z,21.78
2018-04-24T19:12:14.119Z,22.44
2018-04-24T19:14:41.774Z,22.91
2018-04-24T19:17:09.414Z,23.20
2018-04-24T19:19:38.754Z,23.37
2018-04-24T19:22:06.654Z,23.57
2018-04-24T19:24:40.341Z,23.77
2018-04-24T19:27:07.886Z,23.84
2018-04-24T19:29:36.311Z,23.87
2018-04-24T19:32:09.554Z,23.73
2018-04-24T19:34:37.978Z,23.67
2018-04-24T19:37:05.587Z,23.58
2018-04-24T19:39:38.620Z,23.33
2018-04-24T19:42:06.281Z,22.43
2018-04-24T19:44:34.831Z,22.61
2018-04-24T19:47:02.730Z,22.85
2018-04-24T19:49:36.197Z,22.92
2018-04-24T19:52:03.789Z,22.70
2018-04-24T19:54:32.407Z,22.83
2018-04-24T19:57:00.143Z,22.89
2018-04-24T19:59:27.694Z,22.83
2018-04-24T20:01:55.314Z,22.80
2018-04-24T20:04:23.008Z,22.53
2018-04-24T20:06:50.667Z,22.44
2018-04-24T20:09:18.276Z,22.28
2018-04-24T20:11:45.936Z,22.20
2018-04-24T20:14:14.321Z,22.02
2018-04-24T20:16:41.976Z,21.69
2018-04-24T20:19:09.526Z,21.55
2018-04-24T20:21:37.182Z,21.21
2018-04-24T20:24:04.725Z,20.41
2018-04-24T20:26:32.387Z,19.35
2018-04-24T20:29:00.027Z,18.45
2018-04-24T20:31:28.550Z,17.93
2018-04-24T20:33:56.141Z,17.47
2018-04-24T20:36:23.746Z,17.28
2018-04-24T20:38:51.302Z,17.15
2018-04-24T20:41:18.979Z,17.20
2018-04-24T20:43:46.751Z,17.15
2018-04-24T20:46:14.408Z,17.11
2018-04-24T20:48:42.810Z,17.06
2018-04-24T20:51:11.039Z,17.22
2018-04-24T20:53:38.848Z,17.38
2018-04-24T20:56:06.401Z,17.43
2018-04-24T20:58:33.958Z,17.45
2018-04-24T21:01:01.695Z,17.13
2018-04-24T21:03:29.307Z,16.93
2018-04-24T21:05:56.861Z,16.66
2018-04-24T21:08:24.535Z,16.68
2018-04-24T21:10:52.782Z,16.66
2018-04-24T21:13:21.478Z,16.59
2018-04-24T21:15:49.199Z,16.58
2018-04-24T21:18:16.811Z,16.66
2018-04-24T21:20:44.366Z,16.73
2018-04-24T21:23:11.981Z,16.73
2018-04-24T21:25:39.540Z,16.72
2018-04-24T21:28:07.183Z,16.77
2018-04-24T21:30:34.782Z,16.85
2018-04-24T21:33:02.358Z,16.91
2018-04-24T21:35:29.910Z,16.82
2018-04-24T21:37:57.567Z,16.80
2018-04-24T21:40:25.206Z,16.96
2018-04-24T21:42:52.752Z,16.96
2018-04-24T21:45:20.358Z,17.03
2018-04-24T21:47:47.946Z,17.08
2018-04-24T21:50:15.547Z,17.14
2018-04-24T21:52:43.142Z,17.14
2018-04-24T21:55:10.743Z,17.07
2018-04-24T21:57:38.338Z,17.06
2018-04-24T22:00:05.964Z,17.02
2018-04-24T22:02:33.560Z,17.01
2018-04-24T22:05:01.103Z,16.99
2018-04-24T22:07:28.706Z,17.12
2018-04-24T22:09:56.298Z,17.19
2018-04-24T22:12:23.902Z,17.29
2018-04-24T22:14:51.546Z,17.37
2018-04-24T22:17:19.146Z,17.32
2018-04-24T22:19:46.734Z,17.26
2018-04-24T22:22:14.324Z,17.24
2018-04-24T22:24:41.866Z,17.32
2018-04-24T22:27:09.452Z,17.22
2018-04-24T22:29:37.103Z,17.24
2018-04-24T22:32:04.690Z,17.25
2018-04-24T22:34:32.347Z,17.21
2018-04-24T22:36:59.897Z,17.22
2018-04-24T22:39:27.437Z,17.24
2018-04-24T22:41:55.050Z,17.24
2018-04-24T22:44:22.655Z,17.15
2018-04-24T22:46:50.287Z,17.12
2018-04-24T22:49:17.886Z,17.11
2018-04-24T22:51:45.495Z,17.07
2018-04-24T22:54:13.046Z,16.98
2018-04-24T22:56:40.638Z,16.82
2018-04-24T22:59:08.241Z,16.74
2018-04-24T23:01:35.800Z,16.70
2018-04-24T23:04:03.455Z,16.78
2018-04-24T23:06:30.997Z,16.73
2018-04-24T23:08:58.586Z,16.57
2018-04-24T23:11:38.019Z,16.49
2018-04-24T23:14:17.401Z,16.37
2018-04-24T23:16:56.791Z,16.34
2018-04-24T23:19:36.049Z,16.28
2018-04-24T23:22:03.213Z,16.34
2018-04-24T23:24:30.823Z,16.37
2018-04-24T23:26:58.381Z,16.54
2018-04-24T23:29:26.014Z,16.52
2018-04-24T23:31:53.568Z,16.46
2018-04-24T23:34:21.139Z,16.47
2018-04-24T23:36:48.793Z,16.50
2018-04-24T23:39:16.403Z,16.55
2018-04-24T23:41:43.993Z,16.78
2018-04-24T23:44:11.545Z,16.72
2018-04-24T23:46:39.277Z,16.55
2018-04-24T23:49:06.862Z,16.53
2018-04-24T23:51:34.473Z,16.45
2018-04-24T23:54:02.146Z,16.49
2018-04-24T23:56:29.726Z,16.50
2018-04-24T23:58:57.330Z,16.47
